sensor_id;sensor_type;location;lat;lon;timestamp;temperature;humidity
56374;DHT22;58212;47.034;7.376;2022-09-09T00:00:32;15.10;99.90
56374;DHT22;58212;47.034;7.376;2022-09-09T00:03:12;15.10;99.90
56374;DHT22;58212;47.034;7.376;2022-09-09T00:05:46;15.10;99.90
56374;DHT22;58212;47.034;7.376;2022-09-09T00:08:20;15.10;99.90
56374;DHT22;58212;47.034;7.376;2022-09-09T00:10:54;15.20;99.90
56374;DHT22;58212;47.034;7.376;2022-09-09T00:13:30;15.30;99.90
56374;DHT22;58212;47.034;7.376;2022-09-09T00:16:02;15.10;99.90
56374;DHT22;58212;47.034;7.376;2022-09-09T00:18:38;15.00;99.90
56374;DHT22;58212;47.034;7.376;2022-09-09T00:21:13;15.00;99.90
56374;DHT22;58212;47.034;7.376;2022-09-09T00:23:46;15.10;99.90
56374;DHT22;58212;47.034;7.376;2022-09-09T00:26:21;15.10;99.90
56374;DHT22;58212;47.034;7.376;2022-09-09T00:28:55;15.20;99.90
56374;DHT22;58212;47.034;7.376;2022-09-09T00:31:30;15.20;99.90
56374;DHT22;58212;47.034;7.376;2022-09-09T00:34:09;15.20;99.90
56374;DHT22;58212;47.034;7.376;2022-09-09T00:36:39;15.30;99.90
56374;DHT22;58212;47.034;7.376;2022-09-09T00:39:23;15.30;99.90
56374;DHT22;58212;47.034;7.376;2022-09-09T00:42:03;15.30;99.90
56374;DHT22;58212;47.034;7.376;2022-09-09T00:44:37;15.20;99.90
56374;DHT22;58212;47.034;7.376;2022-09-09T00:50:24;15.30;99.90
56374;DHT22;58212;47.034;7.376;2022-09-09T00:53:02;15.30;99.90
56374;DHT22;58212;47.034;7.376;2022-09-09T00:55:38;15.20;99.90
56374;DHT22;58212;47.034;7.376;2022-09-09T00:58:09;15.30;99.90
56374;DHT22;58212;47.034;7.376;2022-09-09T01:00:42;15.30;99.90
56374;DHT22;58212;47.034;7.376;2022-09-09T01:03:22;15.40;99.90
56374;DHT22;58212;47.034;7.376;2022-09-09T01:06:13;15.50;99.90
56374;DHT22;58212;47.034;7.376;2022-09-09T01:09:04;15.50;99.90
56374;DHT22;58212;47.034;7.376;2022-09-09T01:11:46;15.50;99.90
56374;DHT22;58212;47.034;7.376;2022-09-09T01:14:30;15.60;99.90
56374;DHT22;58212;47.034;7.376;2022-09-09T01:19:49;15.60;99.90
56374;DHT22;58212;47.034;7.376;2022-09-09T01:22:29;15.50;99.90
56374;DHT22;58212;47.034;7.376;2022-09-09T01:25:22;15.50;99.90
56374;DHT22;58212;47.034;7.376;2022-09-09T01:28:12;15.50;99.90
56374;DHT22;58212;47.034;7.376;2022-09-09T01:30:41;15.50;99.90
56374;DHT22;58212;47.034;7.376;2022-09-09T01:33:14;15.50;99.90
56374;DHT22;58212;47.034;7.376;2022-09-09T01:35:48;15.50;99.90
56374;DHT22;58212;47.034;7.376;2022-09-09T01:38:18;15.30;99.90
56374;DHT22;58212;47.034;7.376;2022-09-09T01:40:48;15.30;99.90
56374;DHT22;58212;47.034;7.376;2022-09-09T01:43:20;15.30;99.90
56374;DHT22;58212;47.034;7.376;2022-09-09T01:45:50;15.20;99.90
56374;DHT22;58212;47.034;7.376;2022-09-09T01:48:21;15.20;99.90
56374;DHT22;58212;47.034;7.376;2022-09-09T01:51:05;15.40;99.90
56374;DHT22;58212;47.034;7.376;2022-09-09T01:53:32;15.30;99.90
56374;DHT22;58212;47.034;7.376;2022-09-09T01:56:06;15.20;99.90
56374;DHT22;58212;47.034;7.376;2022-09-09T02:03:52;15.10;99.90
56374;DHT22;58212;47.034;7.376;2022-09-09T02:06:27;15.00;99.90
56374;DHT22;58212;47.034;7.376;2022-09-09T02:09:05;15.00;99.90
56374;DHT22;58212;47.034;7.376;2022-09-09T02:11:33;15.10;99.90
56374;DHT22;58212;47.034;7.376;2022-09-09T02:14:30;15.20;99.90
56374;DHT22;58212;47.034;7.376;2022-09-09T02:17:03;15.30;99.90
56374;DHT22;58212;47.034;7.376;2022-09-09T02:22:51;15.30;99.90
56374;DHT22;58212;47.034;7.376;2022-09-09T02:25:25;15.00;99.90
56374;DHT22;58212;47.034;7.376;2022-09-09T02:30:29;15.20;99.90
56374;DHT22;58212;47.034;7.376;2022-09-09T02:32:59;15.20;99.90
56374;DHT22;58212;47.034;7.376;2022-09-09T02:35:42;15.20;99.90
56374;DHT22;58212;47.034;7.376;2022-09-09T02:38:15;15.10;99.90
56374;DHT22;58212;47.034;7.376;2022-09-09T02:43:35;15.00;99.90
56374;DHT22;58212;47.034;7.376;2022-09-09T02:46:17;15.10;99.90
56374;DHT22;58212;47.034;7.376;2022-09-09T02:48:52;15.10;99.90
56374;DHT22;58212;47.034;7.376;2022-09-09T02:51:34;15.20;99.90
56374;DHT22;58212;47.034;7.376;2022-09-09T02:54:10;15.10;99.90
56374;DHT22;58212;47.034;7.376;2022-09-09T02:56:47;15.10;99.90
56374;DHT22;58212;47.034;7.376;2022-09-09T02:59:18;15.10;99.90
56374;DHT22;58212;47.034;7.376;2022-09-09T03:01:45;15.10;99.90
56374;DHT22;58212;47.034;7.376;2022-09-09T03:04:15;15.10;99.90
56374;DHT22;58212;47.034;7.376;2022-09-09T03:06:43;15.10;99.90
56374;DHT22;58212;47.034;7.376;2022-09-09T03:09:20;15.00;99.90
56374;DHT22;58212;47.034;7.376;2022-09-09T03:14:29;14.90;99.90
56374;DHT22;58212;47.034;7.376;2022-09-09T03:16:56;15.00;99.90
56374;DHT22;58212;47.034;7.376;2022-09-09T03:19:28;14.90;99.90
56374;DHT22;58212;47.034;7.376;2022-09-09T03:21:58;14.90;99.90
56374;DHT22;58212;47.034;7.376;2022-09-09T03:24:29;15.00;99.90
56374;DHT22;58212;47.034;7.376;2022-09-09T03:26:57;14.90;99.90
56374;DHT22;58212;47.034;7.376;2022-09-09T03:29:24;14.90;99.90
56374;DHT22;58212;47.034;7.376;2022-09-09T03:31:54;14.80;99.90
56374;DHT22;58212;47.034;7.376;2022-09-09T03:34:24;14.80;99.90
56374;DHT22;58212;47.034;7.376;2022-09-09T03:36:51;14.80;99.90
56374;DHT22;58212;47.034;7.376;2022-09-09T03:39:23;14.80;99.90
56374;DHT22;58212;47.034;7.376;2022-09-09T03:41:52;14.70;99.90
56374;DHT22;58212;47.034;7.376;2022-09-09T03:44:21;14.70;99.90
56374;DHT22;58212;47.034;7.376;2022-09-09T03:46:48;14.70;99.90
56374;DHT22;58212;47.034;7.376;2022-09-09T03:49:15;14.80;99.90
56374;DHT22;58212;47.034;7.376;2022-09-09T03:51:43;14.90;99.90
56374;DHT22;58212;47.034;7.376;2022-09-09T03:54:12;14.80;99.90
56374;DHT22;58212;47.034;7.376;2022-09-09T03:56:41;14.80;99.90
56374;DHT22;58212;47.034;7.376;2022-09-09T03:59:13;14.80;99.90
56374;DHT22;58212;47.034;7.376;2022-09-09T04:01:41;14.80;99.90
56374;DHT22;58212;47.034;7.376;2022-09-09T04:04:10;14.90;99.90
56374;DHT22;58212;47.034;7.376;2022-09-09T04:06:38;14.70;99.90
56374;DHT22;58212;47.034;7.376;2022-09-09T04:09:05;14.70;99.90
56374;DHT22;58212;47.034;7.376;2022-09-09T04:11:33;14.70;99.90
56374;DHT22;58212;47.034;7.376;2022-09-09T04:14:02;14.70;99.90
56374;DHT22;58212;47.034;7.376;2022-09-09T04:16:33;14.70;99.90
56374;DHT22;58212;47.034;7.376;2022-09-09T04:19:03;14.80;99.90
56374;DHT22;58212;47.034;7.376;2022-09-09T04:21:32;14.80;99.90
56374;DHT22;58212;47.034;7.376;2022-09-09T04:24:01;14.80;99.90
56374;DHT22;58212;47.034;7.376;2022-09-09T04:26:28;14.70;99.90
56374;DHT22;58212;47.034;7.376;2022-09-09T04:28:55;14.70;99.90
56374;DHT22;58212;47.034;7.376;2022-09-09T04:31:25;14.70;99.90
56374;DHT22;58212;47.034;7.376;2022-09-09T04:33:57;14.70;99.90
56374;DHT22;58212;47.034;7.376;2022-09-09T04:36:28;14.70;99.90
56374;DHT22;58212;47.034;7.376;2022-09-09T04:38:59;14.70;99.90
56374;DHT22;58212;47.034;7.376;2022-09-09T04:41:29;14.70;99.90
56374;DHT22;58212;47.034;7.376;2022-09-09T04:43:58;14.60;99.90
56374;DHT22;58212;47.034;7.376;2022-09-09T04:46:26;14.70;99.90
56374;DHT22;58212;47.034;7.376;2022-09-09T04:48:54;14.70;99.90
56374;DHT22;58212;47.034;7.376;2022-09-09T04:51:26;14.60;99.90
56374;DHT22;58212;47.034;7.376;2022-09-09T04:53:53;14.60;99.90
56374;DHT22;58212;47.034;7.376;2022-09-09T04:56:23;14.60;99.90
56374;DHT22;58212;47.034;7.376;2022-09-09T04:58:56;14.70;99.90
56374;DHT22;58212;47.034;7.376;2022-09-09T05:01:31;14.70;99.90
56374;DHT22;58212;47.034;7.376;2022-09-09T05:04:02;14.70;99.90
56374;DHT22;58212;47.034;7.376;2022-09-09T05:06:34;14.70;99.90
56374;DHT22;58212;47.034;7.376;2022-09-09T05:09:03;14.70;99.90
56374;DHT22;58212;47.034;7.376;2022-09-09T05:11:32;14.70;99.90
56374;DHT22;58212;47.034;7.376;2022-09-09T05:14:06;14.70;99.90
56374;DHT22;58212;47.034;7.376;2022-09-09T05:16:35;14.70;99.90
56374;DHT22;58212;47.034;7.376;2022-09-09T05:19:02;14.70;99.90
56374;DHT22;58212;47.034;7.376;2022-09-09T05:21:42;14.80;99.90
56374;DHT22;58212;47.034;7.376;2022-09-09T05:24:09;14.80;99.90
56374;DHT22;58212;47.034;7.376;2022-09-09T05:26:37;14.80;99.90
56374;DHT22;58212;47.034;7.376;2022-09-09T05:29:04;14.80;99.90
56374;DHT22;58212;47.034;7.376;2022-09-09T05:31:32;15.20;99.90
56374;DHT22;58212;47.034;7.376;2022-09-09T05:34:03;16.60;99.90
56374;DHT22;58212;47.034;7.376;2022-09-09T05:36:30;15.80;99.90
56374;DHT22;58212;47.034;7.376;2022-09-09T05:39:01;15.30;99.90
56374;DHT22;58212;47.034;7.376;2022-09-09T05:41:30;15.10;99.90
56374;DHT22;58212;47.034;7.376;2022-09-09T05:44:01;15.00;99.90
56374;DHT22;58212;47.034;7.376;2022-09-09T05:46:30;15.00;99.90
56374;DHT22;58212;47.034;7.376;2022-09-09T05:48:57;15.00;99.90
56374;DHT22;58212;47.034;7.376;2022-09-09T05:51:29;15.20;99.90
56374;DHT22;58212;47.034;7.376;2022-09-09T05:53:58;17.70;99.90
56374;DHT22;58212;47.034;7.376;2022-09-09T05:56:29;17.10;99.90
56374;DHT22;58212;47.034;7.376;2022-09-09T05:58:59;16.10;99.90
56374;DHT22;58212;47.034;7.376;2022-09-09T06:01:29;15.80;99.90
56374;DHT22;58212;47.034;7.376;2022-09-09T06:04:02;15.70;99.90
56374;DHT22;58212;47.034;7.376;2022-09-09T06:06:34;15.70;99.90
56374;DHT22;58212;47.034;7.376;2022-09-09T06:09:08;15.80;99.90
56374;DHT22;58212;47.034;7.376;2022-09-09T06:11:43;15.80;99.90
56374;DHT22;58212;47.034;7.376;2022-09-09T06:14:13;15.70;99.90
56374;DHT22;58212;47.034;7.376;2022-09-09T06:16:45;16.50;99.90
56374;DHT22;58212;47.034;7.376;2022-09-09T06:19:19;16.10;99.90
56374;DHT22;58212;47.034;7.376;2022-09-09T06:21:48;15.90;99.90
56374;DHT22;58212;47.034;7.376;2022-09-09T06:24:16;15.90;99.90
56374;DHT22;58212;47.034;7.376;2022-09-09T06:26:46;16.60;99.90
56374;DHT22;58212;47.034;7.376;2022-09-09T06:29:22;16.50;99.90
56374;DHT22;58212;47.034;7.376;2022-09-09T06:31:51;16.20;99.90
56374;DHT22;58212;47.034;7.376;2022-09-09T06:34:23;16.20;99.90
56374;DHT22;58212;47.034;7.376;2022-09-09T06:36:54;16.20;99.90
56374;DHT22;58212;47.034;7.376;2022-09-09T06:39:23;16.50;99.90
56374;DHT22;58212;47.034;7.376;2022-09-09T06:41:56;16.60;99.90
56374;DHT22;58212;47.034;7.376;2022-09-09T06:44:41;16.50;99.90
56374;DHT22;58212;47.034;7.376;2022-09-09T06:47:13;16.90;99.90
56374;DHT22;58212;47.034;7.376;2022-09-09T06:49:42;19.40;99.90
56374;DHT22;58212;47.034;7.376;2022-09-09T06:52:12;19.10;99.90
56374;DHT22;58212;47.034;7.376;2022-09-09T06:54:39;19.10;99.90
56374;DHT22;58212;47.034;7.376;2022-09-09T06:57:08;21.60;99.90
56374;DHT22;58212;47.034;7.376;2022-09-09T06:59:36;22.60;99.90
56374;DHT22;58212;47.034;7.376;2022-09-09T07:02:03;23.30;99.90
56374;DHT22;58212;47.034;7.376;2022-09-09T07:04:31;23.60;99.90
56374;DHT22;58212;47.034;7.376;2022-09-09T07:06:59;22.10;99.90
56374;DHT22;58212;47.034;7.376;2022-09-09T07:09:26;19.60;99.90
56374;DHT22;58212;47.034;7.376;2022-09-09T07:11:57;18.50;99.90
56374;DHT22;58212;47.034;7.376;2022-09-09T07:14:27;18.80;99.90
56374;DHT22;58212;47.034;7.376;2022-09-09T07:16:58;18.30;99.90
56374;DHT22;58212;47.034;7.376;2022-09-09T07:19:29;18.00;99.90
56374;DHT22;58212;47.034;7.376;2022-09-09T07:21:56;18.00;99.90
56374;DHT22;58212;47.034;7.376;2022-09-09T07:24:24;17.90;99.90
56374;DHT22;58212;47.034;7.376;2022-09-09T07:26:52;17.80;99.90
56374;DHT22;58212;47.034;7.376;2022-09-09T07:29:20;17.60;99.90
56374;DHT22;58212;47.034;7.376;2022-09-09T07:31:53;17.50;99.90
56374;DHT22;58212;47.034;7.376;2022-09-09T07:34:25;17.50;99.90
56374;DHT22;58212;47.034;7.376;2022-09-09T07:36:52;17.90;99.90
56374;DHT22;58212;47.034;7.376;2022-09-09T07:39:20;18.30;99.90
56374;DHT22;58212;47.034;7.376;2022-09-09T07:41:51;18.90;99.90
56374;DHT22;58212;47.034;7.376;2022-09-09T07:44:22;19.00;99.90
56374;DHT22;58212;47.034;7.376;2022-09-09T07:47:11;18.50;99.90
56374;DHT22;58212;47.034;7.376;2022-09-09T07:49:43;18.20;99.90
56374;DHT22;58212;47.034;7.376;2022-09-09T07:52:14;18.10;99.90
56374;DHT22;58212;47.034;7.376;2022-09-09T07:54:44;18.10;99.90
56374;DHT22;58212;47.034;7.376;2022-09-09T07:57:13;18.00;99.90
56374;DHT22;58212;47.034;7.376;2022-09-09T07:59:44;17.90;99.90
56374;DHT22;58212;47.034;7.376;2022-09-09T08:02:16;17.70;99.90
56374;DHT22;58212;47.034;7.376;2022-09-09T08:04:45;17.70;99.90
56374;DHT22;58212;47.034;7.376;2022-09-09T08:07:16;18.00;99.90
56374;DHT22;58212;47.034;7.376;2022-09-09T08:09:49;17.90;99.90
56374;DHT22;58212;47.034;7.376;2022-09-09T08:12:24;18.20;99.90
56374;DHT22;58212;47.034;7.376;2022-09-09T08:14:51;18.30;99.90
56374;DHT22;58212;47.034;7.376;2022-09-09T08:17:22;18.20;99.90
56374;DHT22;58212;47.034;7.376;2022-09-09T08:19:50;18.60;99.90
56374;DHT22;58212;47.034;7.376;2022-09-09T08:22:22;18.90;99.90
56374;DHT22;58212;47.034;7.376;2022-09-09T08:24:50;19.30;99.90
56374;DHT22;58212;47.034;7.376;2022-09-09T08:27:18;19.70;99.90
56374;DHT22;58212;47.034;7.376;2022-09-09T08:29:45;19.50;99.90
56374;DHT22;58212;47.034;7.376;2022-09-09T08:32:13;19.30;99.90
56374;DHT22;58212;47.034;7.376;2022-09-09T08:34:41;19.40;99.90
56374;DHT22;58212;47.034;7.376;2022-09-09T08:37:14;19.40;99.90
56374;DHT22;58212;47.034;7.376;2022-09-09T08:39:43;19.40;99.90
56374;DHT22;58212;47.034;7.376;2022-09-09T08:42:21;19.70;99.90
56374;DHT22;58212;47.034;7.376;2022-09-09T08:45:14;19.70;99.90
56374;DHT22;58212;47.034;7.376;2022-09-09T08:47:52;20.00;99.90
56374;DHT22;58212;47.034;7.376;2022-09-09T08:50:27;20.40;99.90
56374;DHT22;58212;47.034;7.376;2022-09-09T08:53:12;20.60;99.90
56374;DHT22;58212;47.034;7.376;2022-09-09T08:55:45;20.10;99.90
56374;DHT22;58212;47.034;7.376;2022-09-09T08:58:19;19.70;99.90
56374;DHT22;58212;47.034;7.376;2022-09-09T09:01:01;19.60;99.90
56374;DHT22;58212;47.034;7.376;2022-09-09T09:03:38;19.70;99.90
56374;DHT22;58212;47.034;7.376;2022-09-09T09:06:23;19.70;99.90
56374;DHT22;58212;47.034;7.376;2022-09-09T09:09:01;19.80;99.90
56374;DHT22;58212;47.034;7.376;2022-09-09T09:11:35;19.90;99.90
56374;DHT22;58212;47.034;7.376;2022-09-09T09:14:10;20.30;99.90
56374;DHT22;58212;47.034;7.376;2022-09-09T09:16:45;20.20;99.90
56374;DHT22;58212;47.034;7.376;2022-09-09T09:19:16;20.40;99.90
56374;DHT22;58212;47.034;7.376;2022-09-09T09:21:50;20.40;99.90
56374;DHT22;58212;47.034;7.376;2022-09-09T09:24:20;20.60;99.90
56374;DHT22;58212;47.034;7.376;2022-09-09T09:26:50;20.60;99.90
56374;DHT22;58212;47.034;7.376;2022-09-09T09:29:20;20.40;99.90
56374;DHT22;58212;47.034;7.376;2022-09-09T09:31:52;20.60;99.90
56374;DHT22;58212;47.034;7.376;2022-09-09T09:34:21;20.60;99.90
56374;DHT22;58212;47.034;7.376;2022-09-09T09:36:55;20.70;99.90
56374;DHT22;58212;47.034;7.376;2022-09-09T09:39:28;20.90;99.90
56374;DHT22;58212;47.034;7.376;2022-09-09T09:42:09;21.00;99.90
56374;DHT22;58212;47.034;7.376;2022-09-09T09:44:36;21.10;99.90
56374;DHT22;58212;47.034;7.376;2022-09-09T09:47:14;21.20;99.90
56374;DHT22;58212;47.034;7.376;2022-09-09T09:49:52;21.00;99.90
56374;DHT22;58212;47.034;7.376;2022-09-09T09:52:24;21.00;99.90
56374;DHT22;58212;47.034;7.376;2022-09-09T09:54:52;20.50;99.90
56374;DHT22;58212;47.034;7.376;2022-09-09T09:57:26;20.20;99.90
56374;DHT22;58212;47.034;7.376;2022-09-09T10:00:04;20.10;99.90
56374;DHT22;58212;47.034;7.376;2022-09-09T10:02:42;20.50;99.90
56374;DHT22;58212;47.034;7.376;2022-09-09T10:05:16;20.90;99.90
56374;DHT22;58212;47.034;7.376;2022-09-09T10:08:02;21.10;99.90
56374;DHT22;58212;47.034;7.376;2022-09-09T10:13:27;21.00;99.90
56374;DHT22;58212;47.034;7.376;2022-09-09T10:16:14;21.00;99.90
56374;DHT22;58212;47.034;7.376;2022-09-09T10:18:50;21.00;99.90
56374;DHT22;58212;47.034;7.376;2022-09-09T10:21:39;21.10;99.90
56374;DHT22;58212;47.034;7.376;2022-09-09T10:24:27;21.30;99.90
56374;DHT22;58212;47.034;7.376;2022-09-09T10:27:05;21.30;99.90
56374;DHT22;58212;47.034;7.376;2022-09-09T10:29:50;21.40;99.90
56374;DHT22;58212;47.034;7.376;2022-09-09T10:32:34;21.30;99.90
56374;DHT22;58212;47.034;7.376;2022-09-09T10:35:10;21.50;99.90
56374;DHT22;58212;47.034;7.376;2022-09-09T10:40:41;21.80;99.90
56374;DHT22;58212;47.034;7.376;2022-09-09T10:43:20;21.70;99.90
56374;DHT22;58212;47.034;7.376;2022-09-09T10:45:57;21.70;99.90
56374;DHT22;58212;47.034;7.376;2022-09-09T10:48:40;21.80;99.90
56374;DHT22;58212;47.034;7.376;2022-09-09T10:51:23;22.00;99.90
56374;DHT22;58212;47.034;7.376;2022-09-09T10:54:01;22.10;99.90
56374;DHT22;58212;47.034;7.376;2022-09-09T10:56:35;22.10;99.90
56374;DHT22;58212;47.034;7.376;2022-09-09T10:59:06;22.20;99.90
56374;DHT22;58212;47.034;7.376;2022-09-09T11:01:43;22.00;99.90
56374;DHT22;58212;47.034;7.376;2022-09-09T11:04:16;22.20;99.90
56374;DHT22;58212;47.034;7.376;2022-09-09T11:06:48;22.00;99.90
56374;DHT22;58212;47.034;7.376;2022-09-09T11:09:19;21.90;99.90
56374;DHT22;58212;47.034;7.376;2022-09-09T11:11:53;21.90;99.90
56374;DHT22;58212;47.034;7.376;2022-09-09T11:14:26;21.70;99.90
56374;DHT22;58212;47.034;7.376;2022-09-09T11:16:58;21.30;99.90
56374;DHT22;58212;47.034;7.376;2022-09-09T11:19:32;21.20;99.90
56374;DHT22;58212;47.034;7.376;2022-09-09T11:22:06;21.00;99.90
56374;DHT22;58212;47.034;7.376;2022-09-09T11:24:37;21.20;99.90
56374;DHT22;58212;47.034;7.376;2022-09-09T11:27:11;21.20;99.90
56374;DHT22;58212;47.034;7.376;2022-09-09T11:30:14;21.20;99.90
56374;DHT22;58212;47.034;7.376;2022-09-09T11:33:03;21.60;99.90
56374;DHT22;58212;47.034;7.376;2022-09-09T11:35:45;21.60;99.90
56374;DHT22;58212;47.034;7.376;2022-09-09T11:38:26;21.40;99.90
56374;DHT22;58212;47.034;7.376;2022-09-09T11:40:58;21.70;99.90
56374;DHT22;58212;47.034;7.376;2022-09-09T11:43:31;22.20;99.90
56374;DHT22;58212;47.034;7.376;2022-09-09T11:46:01;22.30;99.90
56374;DHT22;58212;47.034;7.376;2022-09-09T11:48:32;22.60;99.90
56374;DHT22;58212;47.034;7.376;2022-09-09T11:51:03;22.80;99.90
56374;DHT22;58212;47.034;7.376;2022-09-09T11:53:33;22.80;99.90
56374;DHT22;58212;47.034;7.376;2022-09-09T11:56:11;22.60;99.90
56374;DHT22;58212;47.034;7.376;2022-09-09T11:58:55;22.50;99.90
56374;DHT22;58212;47.034;7.376;2022-09-09T12:01:28;22.40;99.90
56374;DHT22;58212;47.034;7.376;2022-09-09T12:04:21;22.60;99.90
56374;DHT22;58212;47.034;7.376;2022-09-09T12:06:56;22.70;99.90
56374;DHT22;58212;47.034;7.376;2022-09-09T12:09:38;22.90;99.90
56374;DHT22;58212;47.034;7.376;2022-09-09T12:12:28;22.70;99.90
56374;DHT22;58212;47.034;7.376;2022-09-09T12:17:54;22.70;99.90
56374;DHT22;58212;47.034;7.376;2022-09-09T12:20:23;22.90;99.90
56374;DHT22;58212;47.034;7.376;2022-09-09T12:23:20;22.40;99.90
56374;DHT22;58212;47.034;7.376;2022-09-09T12:25:59;22.50;99.90
56374;DHT22;58212;47.034;7.376;2022-09-09T12:28:41;22.80;99.90
56374;DHT22;58212;47.034;7.376;2022-09-09T12:31:16;23.00;99.90
56374;DHT22;58212;47.034;7.376;2022-09-09T12:33:45;22.90;99.90
56374;DHT22;58212;47.034;7.376;2022-09-09T12:36:17;22.80;99.90
56374;DHT22;58212;47.034;7.376;2022-09-09T12:38:46;22.40;99.90
56374;DHT22;58212;47.034;7.376;2022-09-09T12:41:20;22.50;99.90
56374;DHT22;58212;47.034;7.376;2022-09-09T12:43:48;22.80;99.90
56374;DHT22;58212;47.034;7.376;2022-09-09T12:46:24;23.00;99.90
56374;DHT22;58212;47.034;7.376;2022-09-09T12:48:54;23.00;99.90
56374;DHT22;58212;47.034;7.376;2022-09-09T12:51:25;22.90;99.90
56374;DHT22;58212;47.034;7.376;2022-09-09T12:53:54;22.90;99.90
56374;DHT22;58212;47.034;7.376;2022-09-09T12:56:24;22.70;99.90
56374;DHT22;58212;47.034;7.376;2022-09-09T12:58:54;22.50;99.90
56374;DHT22;58212;47.034;7.376;2022-09-09T13:01:25;22.10;99.90
56374;DHT22;58212;47.034;7.376;2022-09-09T13:03:54;22.40;99.90
56374;DHT22;58212;47.034;7.376;2022-09-09T13:06:24;22.60;99.90
56374;DHT22;58212;47.034;7.376;2022-09-09T13:08:52;22.60;99.90
56374;DHT22;58212;47.034;7.376;2022-09-09T13:11:23;22.60;99.90
56374;DHT22;58212;47.034;7.376;2022-09-09T13:13:56;22.60;99.90
56374;DHT22;58212;47.034;7.376;2022-09-09T13:16:26;22.70;99.90
56374;DHT22;58212;47.034;7.376;2022-09-09T13:18:58;22.40;99.90
56374;DHT22;58212;47.034;7.376;2022-09-09T13:21:37;22.60;99.90
56374;DHT22;58212;47.034;7.376;2022-09-09T13:24:05;22.80;99.90
56374;DHT22;58212;47.034;7.376;2022-09-09T13:26:33;22.80;99.90
56374;DHT22;58212;47.034;7.376;2022-09-09T13:29:16;22.60;99.90
56374;DHT22;58212;47.034;7.376;2022-09-09T13:31:49;22.50;99.90
56374;DHT22;58212;47.034;7.376;2022-09-09T13:34:27;21.90;99.90
56374;DHT22;58212;47.034;7.376;2022-09-09T13:36:57;21.80;99.90
56374;DHT22;58212;47.034;7.376;2022-09-09T13:39:27;22.00;99.90
56374;DHT22;58212;47.034;7.376;2022-09-09T13:41:54;22.00;99.90
56374;DHT22;58212;47.034;7.376;2022-09-09T13:44:25;22.30;99.90
56374;DHT22;58212;47.034;7.376;2022-09-09T13:47:02;22.40;99.90
56374;DHT22;58212;47.034;7.376;2022-09-09T13:49:30;22.10;99.90
56374;DHT22;58212;47.034;7.376;2022-09-09T13:52:09;22.20;99.90
56374;DHT22;58212;47.034;7.376;2022-09-09T13:54:37;22.00;99.90
56374;DHT22;58212;47.034;7.376;2022-09-09T13:57:05;22.10;99.90
56374;DHT22;58212;47.034;7.376;2022-09-09T13:59:32;22.20;99.90
56374;DHT22;58212;47.034;7.376;2022-09-09T14:02:01;22.20;99.90
56374;DHT22;58212;47.034;7.376;2022-09-09T14:04:28;22.40;99.90
56374;DHT22;58212;47.034;7.376;2022-09-09T14:06:58;22.50;99.90
56374;DHT22;58212;47.034;7.376;2022-09-09T14:09:25;22.50;99.90
56374;DHT22;58212;47.034;7.376;2022-09-09T14:11:52;22.40;99.90
56374;DHT22;58212;47.034;7.376;2022-09-09T14:14:20;22.50;99.90
56374;DHT22;58212;47.034;7.376;2022-09-09T14:16:47;22.60;99.90
56374;DHT22;58212;47.034;7.376;2022-09-09T14:19:16;22.80;99.90
56374;DHT22;58212;47.034;7.376;2022-09-09T14:21:43;22.80;99.90
56374;DHT22;58212;47.034;7.376;2022-09-09T14:24:10;22.80;99.90
56374;DHT22;58212;47.034;7.376;2022-09-09T14:26:38;22.80;99.90
56374;DHT22;58212;47.034;7.376;2022-09-09T14:29:05;22.40;99.90
56374;DHT22;58212;47.034;7.376;2022-09-09T14:31:36;22.10;99.90
56374;DHT22;58212;47.034;7.376;2022-09-09T14:34:03;21.80;99.90
56374;DHT22;58212;47.034;7.376;2022-09-09T14:36:31;21.80;99.90
56374;DHT22;58212;47.034;7.376;2022-09-09T14:38:59;21.80;99.90
56374;DHT22;58212;47.034;7.376;2022-09-09T14:41:26;21.80;99.90
56374;DHT22;58212;47.034;7.376;2022-09-09T14:43:56;21.90;99.90
56374;DHT22;58212;47.034;7.376;2022-09-09T14:46:25;21.70;99.90
56374;DHT22;58212;47.034;7.376;2022-09-09T14:48:53;21.70;99.90
56374;DHT22;58212;47.034;7.376;2022-09-09T14:51:22;21.80;99.90
56374;DHT22;58212;47.034;7.376;2022-09-09T14:53:53;21.70;99.90
56374;DHT22;58212;47.034;7.376;2022-09-09T14:56:22;21.60;99.90
56374;DHT22;58212;47.034;7.376;2022-09-09T14:58:50;21.40;99.90
56374;DHT22;58212;47.034;7.376;2022-09-09T15:01:18;21.40;99.90
56374;DHT22;58212;47.034;7.376;2022-09-09T15:03:51;21.40;99.90
56374;DHT22;58212;47.034;7.376;2022-09-09T15:06:19;21.20;99.90
56374;DHT22;58212;47.034;7.376;2022-09-09T15:08:47;21.10;99.90
56374;DHT22;58212;47.034;7.376;2022-09-09T15:11:15;21.00;99.90
56374;DHT22;58212;47.034;7.376;2022-09-09T15:13:43;21.20;99.90
56374;DHT22;58212;47.034;7.376;2022-09-09T15:16:12;21.20;99.90
56374;DHT22;58212;47.034;7.376;2022-09-09T15:18:39;21.20;99.90
56374;DHT22;58212;47.034;7.376;2022-09-09T15:21:09;21.00;99.90
56374;DHT22;58212;47.034;7.376;2022-09-09T15:23:38;21.20;99.90
56374;DHT22;58212;47.034;7.376;2022-09-09T15:26:06;21.20;99.90
56374;DHT22;58212;47.034;7.376;2022-09-09T15:28:36;21.00;99.90
56374;DHT22;58212;47.034;7.376;2022-09-09T15:31:06;21.00;99.90
56374;DHT22;58212;47.034;7.376;2022-09-09T15:33:36;20.80;99.90
56374;DHT22;58212;47.034;7.376;2022-09-09T15:36:13;20.50;99.90
56374;DHT22;58212;47.034;7.376;2022-09-09T15:38:40;20.60;99.90
56374;DHT22;58212;47.034;7.376;2022-09-09T15:41:10;20.50;99.90
56374;DHT22;58212;47.034;7.376;2022-09-09T15:43:42;20.30;99.90
56374;DHT22;58212;47.034;7.376;2022-09-09T15:46:24;20.30;99.90
56374;DHT22;58212;47.034;7.376;2022-09-09T15:48:54;20.20;99.90
56374;DHT22;58212;47.034;7.376;2022-09-09T15:51:22;20.20;99.90
56374;DHT22;58212;47.034;7.376;2022-09-09T15:53:54;20.00;99.90
56374;DHT22;58212;47.034;7.376;2022-09-09T15:56:22;19.80;99.90
56374;DHT22;58212;47.034;7.376;2022-09-09T15:58:51;19.60;99.90
56374;DHT22;58212;47.034;7.376;2022-09-09T16:01:18;19.40;99.90
56374;DHT22;58212;47.034;7.376;2022-09-09T16:03:46;19.00;99.90
56374;DHT22;58212;47.034;7.376;2022-09-09T16:06:16;18.80;99.90
56374;DHT22;58212;47.034;7.376;2022-09-09T16:08:44;18.80;99.90
56374;DHT22;58212;47.034;7.376;2022-09-09T16:11:15;18.40;99.90
56374;DHT22;58212;47.034;7.376;2022-09-09T16:13:45;18.30;99.90
56374;DHT22;58212;47.034;7.376;2022-09-09T16:16:18;18.30;99.90
56374;DHT22;58212;47.034;7.376;2022-09-09T16:18:49;18.20;99.90
56374;DHT22;58212;47.034;7.376;2022-09-09T16:21:19;18.30;99.90
56374;DHT22;58212;47.034;7.376;2022-09-09T16:23:50;18.20;99.90
56374;DHT22;58212;47.034;7.376;2022-09-09T16:26:18;18.20;99.90
56374;DHT22;58212;47.034;7.376;2022-09-09T16:28:45;18.10;99.90
56374;DHT22;58212;47.034;7.376;2022-09-09T16:31:16;18.00;99.90
56374;DHT22;58212;47.034;7.376;2022-09-09T16:33:43;17.80;99.90